createdAt,value
2023-04-25T00:00:08.454Z,50.28
2023-04-25T00:02:39.353Z,50.35
2023-04-25T00:05:07.296Z,50.09
2023-04-25T00:07:35.869Z,50.25
2023-04-25T00:10:03.662Z,49.74
2023-04-25T00:12:30.721Z,49.39
2023-04-25T00:15:01.002Z,49.35
2023-04-25T00:17:28.355Z,49.67
2023-04-25T00:19:55.658Z,49.50
2023-04-25T00:22:22.791Z,49.63
2023-04-25T00:24:49.909Z,49.83
2023-04-25T00:27:17.186Z,50.03
2023-04-25T00:29:44.365Z,49.97
2023-04-25T00:32:11.590Z,50.05
2023-04-25T00:34:39.087Z,50.42
2023-04-25T00:37:06.989Z,50.59
2023-04-25T00:39:34.193Z,50.44
2023-04-25T00:42:03.115Z,50.17
2023-04-25T00:44:33.226Z,50.23
2023-04-25T00:47:03.374Z,50.49
2023-04-25T00:49:30.531Z,50.42
2023-04-25T00:51:57.970Z,50.97
2023-04-25T00:54:26.243Z,51.06
2023-04-25T00:56:54.094Z,51.11
2023-04-25T00:59:22.246Z,51.22
2023-04-25T01:01:49.750Z,51.54
2023-04-25T01:04:16.979Z,51.47
2023-04-25T01:06:44.234Z,51.56
2023-04-25T01:09:11.771Z,51.63
2023-04-25T01:11:41.220Z,51.69
2023-04-25T01:14:08.616Z,51.69
2023-04-25T01:16:37.266Z,51.76
2023-04-25T01:19:14.023Z,51.79
2023-04-25T01:21:41.590Z,51.64
2023-04-25T01:24:09.109Z,51.89
2023-04-25T01:26:37.714Z,51.65
2023-04-25T01:29:09.100Z,51.76
2023-04-25T01:31:37.469Z,51.67
2023-04-25T01:34:06.325Z,51.48
2023-04-25T01:36:34.212Z,51.91
2023-04-25T01:39:02.061Z,51.88
2023-04-25T01:41:29.381Z,51.60
2023-04-25T01:43:56.944Z,51.62
2023-04-25T01:46:24.599Z,51.53
2023-04-25T01:48:51.700Z,51.41
2023-04-25T01:51:19.210Z,51.48
2023-04-25T01:53:46.725Z,51.68
2023-04-25T01:56:36.349Z,51.71
2023-04-25T01:59:06.596Z,51.87
2023-04-25T02:02:12.324Z,52.07
2023-04-25T02:04:39.609Z,52.20
2023-04-25T02:07:07.470Z,52.10
2023-04-25T02:09:49.025Z,52.42
2023-04-25T02:12:17.767Z,52.19
2023-04-25T02:15:01.925Z,52.22
2023-04-25T02:17:59.073Z,52.37
2023-04-25T02:20:26.998Z,52.33
2023-04-25T02:22:54.182Z,52.35
2023-04-25T02:25:21.880Z,52.42
2023-04-25T02:27:49.287Z,52.52
2023-04-25T02:30:16.888Z,52.71
2023-04-25T02:32:44.469Z,52.67
2023-04-25T02:35:11.563Z,52.55
2023-04-25T02:37:40.846Z,52.68
2023-04-25T02:40:09.163Z,52.70
2023-04-25T02:42:36.862Z,52.85
2023-04-25T02:45:04.727Z,52.89
2023-04-25T02:47:32.369Z,52.87
2023-04-25T02:49:59.822Z,52.71
2023-04-25T02:52:26.959Z,52.67
2023-04-25T02:55:02.306Z,52.38
2023-04-25T02:57:30.372Z,52.44
2023-04-25T03:00:14.717Z,52.67
2023-04-25T03:02:41.959Z,52.83
2023-04-25T03:05:09.914Z,52.76
2023-04-25T03:07:37.910Z,52.83
2023-04-25T03:10:06.825Z,52.98
2023-04-25T03:12:35.083Z,53.23
2023-04-25T03:15:02.370Z,53.34
2023-04-25T03:17:29.587Z,53.36
2023-04-25T03:19:56.952Z,53.25
2023-04-25T03:22:24.602Z,53.23
2023-04-25T03:24:53.292Z,53.32
2023-04-25T03:27:21.112Z,53.18
2023-04-25T03:29:48.489Z,52.96
2023-04-25T03:32:15.784Z,52.93
2023-04-25T03:34:43.046Z,52.74
2023-04-25T03:37:10.618Z,52.84
2023-04-25T03:39:39.532Z,52.85
2023-04-25T03:42:07.605Z,52.89
2023-04-25T03:44:34.827Z,53.37
2023-04-25T03:47:02.492Z,53.63
2023-04-25T03:49:30.331Z,53.47
2023-04-25T03:52:01.363Z,53.35
2023-04-25T03:54:31.795Z,53.07
2023-04-25T03:57:05.062Z,52.80
2023-04-25T03:59:35.499Z,52.98
2023-04-25T04:02:03.721Z,52.89
2023-04-25T04:04:33.692Z,53.22
2023-04-25T04:07:01.885Z,53.30
2023-04-25T04:09:32.418Z,53.44
2023-04-25T04:12:02.539Z,53.45
2023-04-25T04:14:41.916Z,53.28
2023-04-25T04:17:11.028Z,53.18
2023-04-25T04:19:38.645Z,53.41
2023-04-25T04:22:12.344Z,53.34
2023-04-25T04:24:40.995Z,53.27
2023-04-25T04:27:09.227Z,53.04
2023-04-25T04:29:46.940Z,53.11
2023-04-25T04:32:26.296Z,52.63
2023-04-25T04:34:55.921Z,52.08
2023-04-25T04:37:25.101Z,51.98
2023-04-25T04:39:53.022Z,51.95
2023-04-25T04:42:32.646Z,52.07
2023-04-25T04:44:59.856Z,52.18
2023-04-25T04:47:41.846Z,52.16
2023-04-25T04:50:17.266Z,52.13
2023-04-25T04:53:06.353Z,52.11
2023-04-25T04:55:42.324Z,51.98
2023-04-25T04:58:30.345Z,52.18
2023-04-25T05:01:17.816Z,52.11
2023-04-25T05:04:05.028Z,51.60
2023-04-25T05:06:48.970Z,51.21
2023-04-25T05:09:34.938Z,50.45
2023-04-25T05:12:40.292Z,50.24
2023-04-25T05:15:32.223Z,49.53
2023-04-25T05:18:17.727Z,48.91
2023-04-25T05:21:07.915Z,48.91
2023-04-25T05:23:40.548Z,49.05
2023-04-25T05:26:33.575Z,49.19
2023-04-25T05:29:23.666Z,48.13
2023-04-25T05:32:29.273Z,48.29
2023-04-25T05:34:57.396Z,47.74
2023-04-25T05:37:36.513Z,47.48
2023-04-25T05:40:11.269Z,46.94
2023-04-25T05:42:56.812Z,46.39
2023-04-25T05:45:46.969Z,45.92
2023-04-25T05:48:32.375Z,45.58
2023-04-25T05:51:10.642Z,45.24
2023-04-25T05:54:06.787Z,44.56
2023-04-25T05:56:34.933Z,45.18
2023-04-25T05:59:02.176Z,44.71
2023-04-25T06:01:29.276Z,44.35
2023-04-25T06:03:56.889Z,45.05
2023-04-25T06:06:24.507Z,44.86
2023-04-25T06:08:51.762Z,45.25
2023-04-25T06:11:18.930Z,45.28
2023-04-25T06:13:47.458Z,45.15
2023-04-25T06:16:16.516Z,44.35
2023-04-25T06:18:43.571Z,44.44
2023-04-25T06:21:10.784Z,44.89
2023-04-25T06:23:38.239Z,44.93
2023-04-25T06:26:08.251Z,44.42
2023-04-25T06:28:38.210Z,44.33
2023-04-25T06:31:05.878Z,44.57
2023-04-25T06:33:33.235Z,44.44
2023-04-25T06:36:00.915Z,44.42
2023-04-25T06:38:28.908Z,44.44
2023-04-25T06:40:58.029Z,44.28
2023-04-25T06:43:27.735Z,44.09
2023-04-25T06:46:23.776Z,42.76
2023-04-25T06:48:51.564Z,42.46
2023-04-25T06:51:21.693Z,42.54
2023-04-25T06:53:50.031Z,43.00
2023-04-25T06:56:26.606Z,41.89
2023-04-25T06:59:01.877Z,42.32
2023-04-25T07:01:37.532Z,42.25
2023-04-25T07:04:10.173Z,41.57
2023-04-25T07:06:44.691Z,41.26
2023-04-25T07:09:13.076Z,41.67
2023-04-25T07:11:43.037Z,42.44
2023-04-25T07:14:10.081Z,42.19
2023-04-25T07:16:37.560Z,42.07
2023-04-25T07:19:04.853Z,41.84
2023-04-25T07:21:32.424Z,41.45
2023-04-25T07:24:02.611Z,40.56
2023-04-25T07:26:34.897Z,41.01
2023-04-25T07:29:19.062Z,40.05
2023-04-25T07:31:46.237Z,40.10
2023-04-25T07:34:17.231Z,39.28
2023-04-25T07:36:46.190Z,40.07
2023-04-25T07:39:14.012Z,39.85
2023-04-25T07:41:41.514Z,39.34
2023-04-25T07:44:13.210Z,39.09
2023-04-25T07:46:41.134Z,39.37
2023-04-25T07:49:09.629Z,39.54
2023-04-25T07:51:36.842Z,39.79
2023-04-25T07:54:09.482Z,40.66
2023-04-25T07:56:52.128Z,39.61
2023-04-25T07:59:21.112Z,38.68
2023-04-25T08:01:49.129Z,37.86
2023-04-25T08:04:18.350Z,37.25
2023-04-25T08:06:56.054Z,37.43
2023-04-25T08:09:27.415Z,38.41
2023-04-25T08:11:56.429Z,38.04
2023-04-25T08:14:30.109Z,37.54
2023-04-25T08:16:57.376Z,38.16
2023-04-25T08:19:26.216Z,38.47
2023-04-25T08:21:53.321Z,38.70
2023-04-25T08:24:27.563Z,39.44
2023-04-25T08:26:56.736Z,38.84
2023-04-25T08:29:26.991Z,38.51
2023-04-25T08:31:54.602Z,38.43
2023-04-25T08:34:21.906Z,38.04
2023-04-25T08:36:50.953Z,39.13
2023-04-25T08:39:27.910Z,39.98
2023-04-25T08:42:13.946Z,39.90
2023-04-25T08:44:41.119Z,40.23
2023-04-25T08:47:08.405Z,40.01
2023-04-25T08:49:47.708Z,40.59
2023-04-25T08:52:15.937Z,40.77
2023-04-25T08:54:51.128Z,40.62
2023-04-25T08:57:20.431Z,40.26
2023-04-25T08:59:50.194Z,40.89
2023-04-25T09:02:21.091Z,40.25
2023-04-25T09:04:51.500Z,39.95
2023-04-25T09:07:22.249Z,40.30
2023-04-25T09:09:49.451Z,40.36
2023-04-25T09:12:22.710Z,40.96
2023-04-25T09:15:12.931Z,41.29
2023-04-25T09:18:08.857Z,41.68
2023-04-25T09:21:00.743Z,42.48
2023-04-25T09:23:32.893Z,41.27
2023-04-25T09:26:00.314Z,40.62
2023-04-25T09:28:30.693Z,40.21
2023-04-25T09:30:59.799Z,40.32
2023-04-25T09:33:36.889Z,41.33
2023-04-25T09:36:10.402Z,41.51
2023-04-25T09:38:48.028Z,42.36
2023-04-25T09:41:26.644Z,42.85
2023-04-25T09:44:00.205Z,43.48
2023-04-25T09:46:37.921Z,43.54
2023-04-25T09:49:09.494Z,42.96
2023-04-25T09:52:00.442Z,42.65
2023-04-25T09:54:52.021Z,42.30
2023-04-25T09:57:26.312Z,42.27
2023-04-25T09:59:56.854Z,41.39
2023-04-25T10:02:28.341Z,40.33
2023-04-25T10:05:04.691Z,40.46
2023-04-25T10:07:40.093Z,39.96
2023-04-25T10:10:14.953Z,39.69
2023-04-25T10:12:45.232Z,39.59
2023-04-25T10:15:13.114Z,39.65
2023-04-25T10:17:41.120Z,39.83
2023-04-25T10:20:12.018Z,39.23
2023-04-25T10:22:45.905Z,39.99
2023-04-25T10:25:14.010Z,39.41
2023-04-25T10:27:41.323Z,39.14
2023-04-25T10:30:16.836Z,38.99
2023-04-25T10:32:51.573Z,38.17
2023-04-25T10:35:31.222Z,38.54
2023-04-25T10:38:04.644Z,38.72
2023-04-25T10:40:32.788Z,38.89
2023-04-25T10:43:31.937Z,39.07
2023-04-25T10:46:01.700Z,40.78
2023-04-25T10:48:30.351Z,42.06
2023-04-25T10:51:16.667Z,42.20
2023-04-25T10:54:01.391Z,43.66
2023-04-25T10:56:45.322Z,43.84
2023-04-25T10:59:16.626Z,44.22
2023-04-25T11:01:54.151Z,44.17
2023-04-25T11:04:34.849Z,44.87
2023-04-25T11:07:30.006Z,45.10
2023-04-25T11:09:57.511Z,45.27
2023-04-25T11:12:26.200Z,43.47
2023-04-25T11:15:02.229Z,44.15
2023-04-25T11:17:30.696Z,44.22
2023-04-25T11:19:58.491Z,45.19
2023-04-25T11:22:25.988Z,45.32
2023-04-25T11:24:53.089Z,44.29
2023-04-25T11:27:20.374Z,43.86
2023-04-25T11:29:49.095Z,43.66
2023-04-25T11:32:19.312Z,43.21
2023-04-25T11:34:48.225Z,42.28
2023-04-25T11:37:15.748Z,42.29
2023-04-25T11:39:49.405Z,41.97
2023-04-25T11:42:16.731Z,41.28
2023-04-25T11:44:44.684Z,41.06
2023-04-25T11:47:11.663Z,41.69
2023-04-25T11:49:38.741Z,40.11
2023-04-25T11:52:08.700Z,39.63
2023-04-25T11:54:39.214Z,39.75
2023-04-25T11:57:06.384Z,40.01
2023-04-25T11:59:33.803Z,40.11
2023-04-25T12:02:02.761Z,39.57
2023-04-25T12:04:33.535Z,40.43
2023-04-25T12:07:02.710Z,40.08
2023-04-25T12:09:32.899Z,40.80
2023-04-25T12:12:04.850Z,41.87
2023-04-25T12:14:35.166Z,42.48
2023-04-25T12:17:06.285Z,42.38
2023-04-25T12:19:41.292Z,41.58
2023-04-25T12:22:25.726Z,42.10
2023-04-25T12:24:54.923Z,42.25
2023-04-25T12:27:22.204Z,41.44
2023-04-25T12:29:57.669Z,40.71
2023-04-25T12:32:25.706Z,38.52
2023-04-25T12:34:53.074Z,36.22
2023-04-25T12:37:20.841Z,32.97
2023-04-25T12:39:47.910Z,32.74
2023-04-25T12:42:15.045Z,32.05
2023-04-25T12:44:42.467Z,33.62
2023-04-25T12:47:11.382Z,36.10
2023-04-25T12:49:39.007Z,36.87
2023-04-25T12:52:06.083Z,36.50
2023-04-25T12:54:33.134Z,37.04
2023-04-25T12:57:00.320Z,37.62
2023-04-25T12:59:27.694Z,37.93
2023-04-25T13:01:54.932Z,38.81
2023-04-25T13:04:22.578Z,39.28
2023-04-25T13:06:50.002Z,39.47
2023-04-25T13:09:16.998Z,40.25
2023-04-25T13:11:44.549Z,40.17
2023-04-25T13:14:11.771Z,40.24
2023-04-25T13:16:38.996Z,41.00
2023-04-25T13:19:08.703Z,41.26
2023-04-25T13:21:35.778Z,41.39
2023-04-25T13:24:02.892Z,41.40
2023-04-25T13:26:30.647Z,41.70
2023-04-25T13:28:58.172Z,42.24
2023-04-25T13:31:25.755Z,43.70
2023-04-25T13:33:53.249Z,41.96
2023-04-25T13:36:20.575Z,41.46
2023-04-25T13:38:50.239Z,40.85
2023-04-25T13:41:19.818Z,41.38
2023-04-25T13:43:48.937Z,40.90
2023-04-25T13:46:35.536Z,40.98
2023-04-25T13:49:12.127Z,40.84
2023-04-25T13:51:40.435Z,40.35
2023-04-25T13:54:07.659Z,40.39
2023-04-25T13:56:34.821Z,40.33
2023-04-25T13:59:02.131Z,40.48
2023-04-25T14:01:31.637Z,40.02
2023-04-25T14:03:58.947Z,40.09
2023-04-25T14:06:26.313Z,39.98
2023-04-25T14:08:53.535Z,40.52
2023-04-25T14:11:21.186Z,39.96
2023-04-25T14:13:50.282Z,39.19
2023-04-25T14:16:18.268Z,39.55
2023-04-25T14:18:45.447Z,39.30
2023-04-25T14:21:12.453Z,39.10
2023-04-25T14:23:39.553Z,38.49
2023-04-25T14:26:06.757Z,37.70
2023-04-25T14:28:33.846Z,37.04
2023-04-25T14:31:01.818Z,35.17
2023-04-25T14:33:29.133Z,35.07
2023-04-25T14:35:57.012Z,33.54
2023-04-25T14:38:26.532Z,30.58
2023-04-25T14:40:55.064Z,30.89
2023-04-25T14:43:22.249Z,31.91
2023-04-25T14:45:49.343Z,33.07
2023-04-25T14:48:17.453Z,33.62
2023-04-25T14:50:44.598Z,34.52
2023-04-25T14:53:12.110Z,34.31
2023-04-25T14:55:39.637Z,36.72
2023-04-25T14:58:06.772Z,36.82
2023-04-25T15:00:34.175Z,36.56
2023-04-25T15:03:01.778Z,36.39
2023-04-25T15:05:28.881Z,35.58
2023-04-25T15:07:56.194Z,36.71
2023-04-25T15:10:23.760Z,37.09
2023-04-25T15:12:51.576Z,37.51
2023-04-25T15:15:26.097Z,36.48
2023-04-25T15:17:58.780Z,36.41
2023-04-25T15:20:26.592Z,36.77
2023-04-25T15:22:53.740Z,36.81
2023-04-25T15:25:20.947Z,37.08
2023-04-25T15:27:49.615Z,37.27
2023-04-25T15:30:17.768Z,36.69
2023-04-25T15:32:49.398Z,36.97
2023-04-25T15:35:16.744Z,36.97
2023-04-25T15:37:44.171Z,37.01
2023-04-25T15:40:17.946Z,36.91
2023-04-25T15:42:53.330Z,36.88
2023-04-25T15:45:26.060Z,37.02
2023-04-25T15:47:55.652Z,37.38
2023-04-25T15:50:23.727Z,37.77
2023-04-25T15:52:52.161Z,38.15
2023-04-25T15:55:21.842Z,37.64
2023-04-25T15:57:51.425Z,37.70
2023-04-25T16:00:21.177Z,37.54
2023-04-25T16:02:48.743Z,37.38
2023-04-25T16:05:16.709Z,37.69
2023-04-25T16:07:45.432Z,37.24
2023-04-25T16:10:13.593Z,36.61
2023-04-25T16:12:41.208Z,36.50
2023-04-25T16:15:09.328Z,36.36
2023-04-25T16:17:36.644Z,35.67
2023-04-25T16:20:10.331Z,35.49
2023-04-25T16:22:42.613Z,34.96
2023-04-25T16:25:12.144Z,35.40
2023-04-25T16:27:39.877Z,35.41
2023-04-25T16:30:10.588Z,35.40
2023-04-25T16:32:39.891Z,34.94
2023-04-25T16:35:08.535Z,34.58
2023-04-25T16:37:37.137Z,34.33
2023-04-25T16:40:04.905Z,33.33
2023-04-25T16:42:31.994Z,29.73
2023-04-25T16:44:59.091Z,26.84
2023-04-25T16:47:26.368Z,29.19
2023-04-25T16:49:53.578Z,30.24
2023-04-25T16:52:23.656Z,31.45
2023-04-25T16:54:51.013Z,31.76
2023-04-25T16:57:18.174Z,32.42
2023-04-25T16:59:45.180Z,32.91
2023-04-25T17:02:13.664Z,33.34
2023-04-25T17:04:41.200Z,33.66
2023-04-25T17:07:08.969Z,33.93
2023-04-25T17:09:36.405Z,33.95
2023-04-25T17:12:04.739Z,34.07
2023-04-25T17:14:33.305Z,34.05
2023-04-25T17:17:00.936Z,34.38
2023-04-25T17:19:28.597Z,33.95
2023-04-25T17:21:56.419Z,34.26
2023-04-25T17:24:23.558Z,32.63
2023-04-25T17:26:50.752Z,31.40
2023-04-25T17:29:19.113Z,32.05
2023-04-25T17:31:46.643Z,32.80
2023-04-25T17:34:18.008Z,32.80
2023-04-25T17:36:45.961Z,33.89
2023-04-25T17:39:17.521Z,34.80
2023-04-25T17:41:45.276Z,35.46
2023-04-25T17:44:12.426Z,35.93
2023-04-25T17:46:39.645Z,36.28
2023-04-25T17:49:07.153Z,36.57
2023-04-25T17:51:34.395Z,36.95
2023-04-25T17:54:01.478Z,37.03
2023-04-25T17:56:29.295Z,37.00
2023-04-25T17:58:56.679Z,37.42
2023-04-25T18:01:27.072Z,37.59
2023-04-25T18:03:54.958Z,37.60
2023-04-25T18:06:24.298Z,37.80
2023-04-25T18:08:52.778Z,38.03
2023-04-25T18:11:28.391Z,37.74
2023-04-25T18:13:56.265Z,37.64
2023-04-25T18:16:23.439Z,37.92
2023-04-25T18:18:53.605Z,38.13
2023-04-25T18:21:21.630Z,37.75
2023-04-25T18:23:48.710Z,37.82
2023-04-25T18:26:16.352Z,37.62
2023-04-25T18:28:45.688Z,37.84
2023-04-25T18:31:14.017Z,37.53
2023-04-25T18:33:44.609Z,38.15
2023-04-25T18:36:12.194Z,38.17
2023-04-25T18:38:42.636Z,38.27
2023-04-25T18:41:33.872Z,38.36
2023-04-25T18:44:08.401Z,38.34
2023-04-25T18:46:37.560Z,38.51
2023-04-25T18:49:05.403Z,38.55
2023-04-25T18:51:32.811Z,38.81
2023-04-25T18:54:01.765Z,38.98
2023-04-25T18:56:33.212Z,39.50
2023-04-25T18:59:04.907Z,39.78
2023-04-25T19:01:35.182Z,39.51
2023-04-25T19:04:06.724Z,39.70
2023-04-25T19:06:34.170Z,39.60
2023-04-25T19:09:02.421Z,40.08
2023-04-25T19:11:33.556Z,40.13
2023-04-25T19:14:01.300Z,40.13
2023-04-25T19:16:28.643Z,40.22
2023-04-25T19:18:58.838Z,40.73
2023-04-25T19:21:27.156Z,40.93
2023-04-25T19:23:56.004Z,41.06
2023-04-25T19:26:25.738Z,41.15
2023-04-25T19:29:14.425Z,41.19
2023-04-25T19:31:44.202Z,40.99
2023-04-25T19:34:13.017Z,41.36
2023-04-25T19:36:45.374Z,41.26
2023-04-25T19:39:13.108Z,41.20
2023-04-25T19:41:42.806Z,41.32
2023-04-25T19:44:10.166Z,41.29
2023-04-25T19:46:37.996Z,41.75
2023-04-25T19:49:07.703Z,41.74
2023-04-25T19:51:36.426Z,41.92
2023-04-25T19:54:04.449Z,42.05
2023-04-25T19:56:34.717Z,42.18
2023-04-25T19:59:08.142Z,42.00
2023-04-25T20:01:36.724Z,42.07
2023-04-25T20:04:06.588Z,41.99
2023-04-25T20:06:35.498Z,41.98
2023-04-25T20:09:04.280Z,42.33
2023-04-25T20:11:33.046Z,42.40
2023-04-25T20:14:00.194Z,42.60
2023-04-25T20:16:27.718Z,42.59
2023-04-25T20:18:55.257Z,42.90
2023-04-25T20:21:25.108Z,43.05
2023-04-25T20:23:54.894Z,43.03
2023-04-25T20:26:23.856Z,42.93
2023-04-25T20:28:51.450Z,43.11
2023-04-25T20:31:19.270Z,42.91
2023-04-25T20:33:49.174Z,42.86
2023-04-25T20:36:17.426Z,43.26
2023-04-25T20:38:44.595Z,43.28
2023-04-25T20:41:12.423Z,43.03
2023-04-25T20:43:42.322Z,43.08
2023-04-25T20:46:10.372Z,43.39
2023-04-25T20:48:37.620Z,43.28
2023-04-25T20:51:07.224Z,42.79
2023-04-25T20:53:34.889Z,42.54
2023-04-25T20:56:06.361Z,42.95
2023-04-25T20:58:33.500Z,43.05
2023-04-25T21:01:02.445Z,42.94
2023-04-25T21:03:30.367Z,42.56
2023-04-25T21:06:03.323Z,42.69
2023-04-25T21:08:30.379Z,42.47
2023-04-25T21:10:57.601Z,42.63
2023-04-25T21:13:29.028Z,42.47
2023-04-25T21:15:57.881Z,42.32
2023-04-25T21:18:25.293Z,41.83
2023-04-25T21:20:52.917Z,41.78
2023-04-25T21:23:19.981Z,41.71
2023-04-25T21:25:48.899Z,41.89
2023-04-25T21:28:15.961Z,42.34
2023-04-25T21:30:43.148Z,42.27
2023-04-25T21:33:10.297Z,42.32
2023-04-25T21:35:37.443Z,42.42
2023-04-25T21:38:04.871Z,42.42
2023-04-25T21:40:32.107Z,42.50
2023-04-25T21:42:59.208Z,42.89
2023-04-25T21:45:26.490Z,42.72
2023-04-25T21:47:53.563Z,43.03
2023-04-25T21:50:21.020Z,43.11
2023-04-25T21:52:51.164Z,43.12
2023-04-25T21:55:19.786Z,43.34
2023-04-25T21:57:46.833Z,43.19
2023-04-25T22:00:21.255Z,43.08
2023-04-25T22:02:49.024Z,43.30
2023-04-25T22:05:16.734Z,42.85
2023-04-25T22:07:44.169Z,42.83
2023-04-25T22:10:11.630Z,43.08
2023-04-25T22:12:38.807Z,43.12
2023-04-25T22:15:08.252Z,43.33
2023-04-25T22:17:35.786Z,43.81
2023-04-25T22:20:09.670Z,43.90
2023-04-25T22:22:36.849Z,45.19
2023-04-25T22:25:04.282Z,45.56
2023-04-25T22:27:31.371Z,45.27
2023-04-25T22:29:58.402Z,46.25
2023-04-25T22:32:26.275Z,46.86
2023-04-25T22:34:53.718Z,47.39
2023-04-25T22:37:21.012Z,46.57
2023-04-25T22:39:48.080Z,46.59
2023-04-25T22:42:15.099Z,46.83
2023-04-25T22:44:42.324Z,46.74
2023-04-25T22:47:09.445Z,46.70
2023-04-25T22:49:36.519Z,46.77
2023-04-25T22:52:04.406Z,46.74
2023-04-25T22:54:31.500Z,47.10
2023-04-25T22:56:59.766Z,47.35
2023-04-25T22:59:27.263Z,48.11
2023-04-25T23:01:56.589Z,48.10
2023-04-25T23:04:24.549Z,47.79
2023-04-25T23:06:51.724Z,48.05
2023-04-25T23:09:18.805Z,47.99
2023-04-25T23:11:46.018Z,47.90
2023-04-25T23:14:13.124Z,47.76
2023-04-25T23:16:40.878Z,47.79
2023-04-25T23:19:08.089Z,47.86
2023-04-25T23:21:35.143Z,48.17
2023-04-25T23:24:02.276Z,48.40
2023-04-25T23:26:29.652Z,48.33
2023-04-25T23:28:56.832Z,48.31
2023-04-25T23:31:23.941Z,48.43
2023-04-25T23:33:51.055Z,47.73
2023-04-25T23:36:21.470Z,47.64
2023-04-25T23:38:48.788Z,47.63
2023-04-25T23:41:16.083Z,47.40
2023-04-25T23:43:43.156Z,47.42
2023-04-25T23:46:10.270Z,47.77
2023-04-25T23:48:37.352Z,47.89
2023-04-25T23:51:04.495Z,48.71
2023-04-25T23:53:31.682Z,48.20
2023-04-25T23:55:58.848Z,48.13
2023-04-25T23:58:25.943Z,47.91
